LPE2233 SPZO-SPJC
Flight info
| Callsign | LPE2233 |
|---|---|
| Flight time | 0h 55m |
| Altitude | 36000 |
| Route | GAXUN UT321 UDENI UT332 PEROV |
| Aircraft | A320/M-SDE1E2E3FGHIRWYZ/SB1 |
Departure
| Time | 2026-04-28 19:49 |
|---|---|
| Airport | Alejandro Velasco Astete International Airport (SPZO) |
Arrival
| Time | 2026-04-28 20:44 |
|---|---|
| Airport | Jorge Chávez International Airport (SPJC) |
| Time | Latitude | Longitude | Altitude | Speed | Heading |
|---|---|---|---|---|---|
| 2026-04-28 19:49 | -13.47928 | -71.79753 | 18589 ft | 328 kts | 306° |
| 2026-04-28 19:49 | -13.46483 | -71.81654 | 18723 ft | 347 kts | 306° |
| 2026-04-28 19:49 | -13.45152 | -71.83790 | 18849 ft | 361 kts | 290° |
| 2026-04-28 19:49 | -13.44362 | -71.86264 | 18973 ft | 376 kts | 286° |
| 2026-04-28 19:50 | -13.42502 | -71.91415 | 19710 ft | 388 kts | 291° |
| 2026-04-28 19:50 | -13.41489 | -71.93996 | 20168 ft | 391 kts | 291° |
| 2026-04-28 19:50 | -13.40468 | -71.96605 | 20646 ft | 394 kts | 291° |
| 2026-04-28 19:51 | -13.39454 | -71.99236 | 21127 ft | 397 kts | 290° |
| 2026-04-28 19:51 | -13.38464 | -72.01862 | 21590 ft | 400 kts | 290° |
| 2026-04-28 19:51 | -13.37469 | -72.04550 | 22073 ft | 402 kts | 289° |
| 2026-04-28 19:51 | -13.36479 | -72.07245 | 22504 ft | 405 kts | 289° |
| 2026-04-28 19:52 | -13.35480 | -72.09967 | 22803 ft | 407 kts | 289° |
| 2026-04-28 19:52 | -13.34477 | -72.12695 | 23269 ft | 410 kts | 289° |
| 2026-04-28 19:52 | -13.33464 | -72.15444 | 23700 ft | 413 kts | 289° |
| 2026-04-28 19:52 | -13.32454 | -72.18176 | 24075 ft | 415 kts | 289° |
| 2026-04-28 19:53 | -13.31423 | -72.20957 | 24472 ft | 417 kts | 289° |
| 2026-04-28 19:53 | -13.30384 | -72.23748 | 24871 ft | 419 kts | 289° |
| 2026-04-28 19:53 | -13.29343 | -72.26545 | 25273 ft | 420 kts | 290° |
| 2026-04-28 19:53 | -13.28300 | -72.29355 | 25734 ft | 421 kts | 290° |
| 2026-04-28 19:54 | -13.27257 | -72.32171 | 26126 ft | 423 kts | 290° |
| 2026-04-28 19:54 | -13.26211 | -72.34998 | 26513 ft | 424 kts | 290° |
| 2026-04-28 19:54 | -13.25159 | -72.37840 | 26867 ft | 426 kts | 290° |
| 2026-04-28 19:54 | -13.24102 | -72.40688 | 27261 ft | 428 kts | 290° |
| 2026-04-28 19:55 | -13.23037 | -72.43551 | 27638 ft | 429 kts | 290° |
| 2026-04-28 19:55 | -13.21985 | -72.46381 | 28001 ft | 432 kts | 290° |
| 2026-04-28 19:55 | -13.20911 | -72.49267 | 28363 ft | 434 kts | 290° |
| 2026-04-28 19:55 | -13.19832 | -72.52171 | 28731 ft | 436 kts | 290° |
| 2026-04-28 19:56 | -13.18750 | -72.55093 | 29084 ft | 437 kts | 290° |
| 2026-04-28 19:56 | -13.17663 | -72.58023 | 29423 ft | 439 kts | 290° |
| 2026-04-28 19:56 | -13.16572 | -72.60964 | 29739 ft | 441 kts | 290° |
| 2026-04-28 19:56 | -13.15491 | -72.63879 | 30029 ft | 442 kts | 290° |
| 2026-04-28 19:57 | -13.14388 | -72.66839 | 30307 ft | 443 kts | 290° |
| 2026-04-28 19:57 | -13.13283 | -72.69801 | 30531 ft | 445 kts | 290° |
| 2026-04-28 19:57 | -13.12169 | -72.72778 | 30764 ft | 447 kts | 291° |
| 2026-04-28 19:57 | -13.11052 | -72.75759 | 31002 ft | 448 kts | 291° |
| 2026-04-28 19:58 | -13.09983 | -72.78775 | 31228 ft | 450 kts | 286° |
| 2026-04-28 19:58 | -13.09234 | -72.81893 | 31452 ft | 451 kts | 283° |
| 2026-04-28 19:58 | -13.08523 | -72.85027 | 31758 ft | 451 kts | 283° |
| 2026-04-28 19:58 | -13.07821 | -72.88121 | 32102 ft | 450 kts | 283° |
| 2026-04-28 19:59 | -13.07114 | -72.91243 | 32431 ft | 449 kts | 284° |
| 2026-04-28 19:59 | -13.06404 | -72.94365 | 32760 ft | 449 kts | 284° |
| 2026-04-28 19:59 | -13.05693 | -72.97490 | 33079 ft | 448 kts | 284° |
| 2026-04-28 19:59 | -13.04985 | -73.00608 | 33421 ft | 447 kts | 284° |
| 2026-04-28 20:00 | -13.04272 | -73.03725 | 33772 ft | 446 kts | 284° |
| 2026-04-28 20:00 | -13.03562 | -73.06822 | 34106 ft | 445 kts | 284° |
| 2026-04-28 20:00 | -13.02863 | -73.09879 | 34381 ft | 444 kts | 284° |
| 2026-04-28 20:00 | -13.02156 | -73.12968 | 34641 ft | 444 kts | 285° |
| 2026-04-28 20:01 | -13.01448 | -73.16053 | 34917 ft | 443 kts | 285° |
| 2026-04-28 20:01 | -13.00742 | -73.19126 | 35210 ft | 442 kts | 285° |
| 2026-04-28 20:01 | -13.00045 | -73.22161 | 35517 ft | 441 kts | 285° |
| 2026-04-28 20:01 | -12.99345 | -73.25223 | 35781 ft | 440 kts | 285° |
| 2026-04-28 20:02 | -12.98647 | -73.28281 | 35980 ft | 440 kts | 285° |
| 2026-04-28 20:02 | -12.97260 | -73.34352 | 36033 ft | 432 kts | 285° |
| 2026-04-28 20:03 | -12.95892 | -73.40321 | 36019 ft | 430 kts | 285° |
| 2026-04-28 20:03 | -12.94520 | -73.46273 | 36017 ft | 433 kts | 285° |
| 2026-04-28 20:04 | -12.93126 | -73.52311 | 36022 ft | 436 kts | 285° |
| 2026-04-28 20:04 | -12.91735 | -73.58360 | 36023 ft | 436 kts | 285° |
| 2026-04-28 20:05 | -12.90340 | -73.64411 | 36023 ft | 436 kts | 285° |
| 2026-04-28 20:05 | -12.88936 | -73.70460 | 36049 ft | 435 kts | 285° |
| 2026-04-28 20:06 | -12.87537 | -73.76491 | 36053 ft | 433 kts | 285° |
| 2026-04-28 20:06 | -12.86159 | -73.82461 | 36058 ft | 433 kts | 285° |
| 2026-04-28 20:07 | -12.84776 | -73.88463 | 36054 ft | 432 kts | 285° |
| 2026-04-28 20:07 | -12.83384 | -73.94460 | 36056 ft | 432 kts | 285° |
| 2026-04-28 20:08 | -12.81986 | -74.00447 | 36058 ft | 432 kts | 285° |
| 2026-04-28 20:08 | -12.80600 | -74.06401 | 36060 ft | 430 kts | 286° |
| 2026-04-28 20:09 | -12.79218 | -74.12366 | 36050 ft | 430 kts | 285° |
| 2026-04-28 20:09 | -12.77827 | -74.18326 | 36044 ft | 428 kts | 286° |
| 2026-04-28 20:10 | -12.76437 | -74.24259 | 36023 ft | 428 kts | 286° |
| 2026-04-28 20:10 | -12.75048 | -74.30193 | 36021 ft | 428 kts | 286° |
| 2026-04-28 20:11 | -12.73672 | -74.36087 | 36005 ft | 427 kts | 286° |
| 2026-04-28 20:11 | -12.72287 | -74.42016 | 36036 ft | 426 kts | 286° |
| 2026-04-28 20:12 | -12.70920 | -74.47872 | 36041 ft | 425 kts | 286° |
| 2026-04-28 20:12 | -12.69548 | -74.53747 | 36040 ft | 424 kts | 286° |
| 2026-04-28 20:13 | -12.68164 | -74.59615 | 36040 ft | 423 kts | 286° |
| 2026-04-28 20:13 | -12.66775 | -74.65487 | 36032 ft | 424 kts | 286° |
| 2026-04-28 20:14 | -12.65387 | -74.71377 | 36031 ft | 426 kts | 286° |
| 2026-04-28 20:14 | -12.64007 | -74.77297 | 36028 ft | 427 kts | 286° |
| 2026-04-28 20:15 | -12.62624 | -74.83193 | 36044 ft | 428 kts | 286° |
| 2026-04-28 20:15 | -12.61213 | -74.89120 | 36035 ft | 428 kts | 286° |
| 2026-04-28 20:16 | -12.59811 | -74.95041 | 36036 ft | 427 kts | 286° |
| 2026-04-28 20:16 | -12.58417 | -75.00963 | 36038 ft | 428 kts | 286° |
| 2026-04-28 20:17 | -12.57026 | -75.06848 | 36045 ft | 428 kts | 286° |
| 2026-04-28 20:17 | -12.55621 | -75.12766 | 36058 ft | 427 kts | 286° |
| 2026-04-28 20:18 | -12.54211 | -75.18675 | 36067 ft | 426 kts | 286° |
| 2026-04-28 20:18 | -12.52818 | -75.24527 | 36072 ft | 425 kts | 286° |
| 2026-04-28 20:19 | -12.51430 | -75.30418 | 36070 ft | 425 kts | 286° |
| 2026-04-28 20:19 | -12.50101 | -75.36318 | 36060 ft | 425 kts | 285° |
| 2026-04-28 20:20 | -12.48783 | -75.42208 | 36058 ft | 424 kts | 285° |
| 2026-04-28 20:20 | -12.47450 | -75.48095 | 36068 ft | 424 kts | 286° |
| 2026-04-28 20:21 | -12.46107 | -75.53969 | 35646 ft | 423 kts | 286° |
| 2026-04-28 20:21 | -12.45438 | -75.56894 | 35245 ft | 423 kts | 285° |
| 2026-04-28 20:21 | -12.44777 | -75.59786 | 34855 ft | 423 kts | 285° |
| 2026-04-28 20:21 | -12.44109 | -75.62711 | 34467 ft | 421 kts | 285° |
| 2026-04-28 20:22 | -12.43443 | -75.65623 | 34104 ft | 419 kts | 285° |
| 2026-04-28 20:22 | -12.42777 | -75.68529 | 33673 ft | 417 kts | 285° |
| 2026-04-28 20:22 | -12.42117 | -75.71409 | 33240 ft | 415 kts | 285° |
| 2026-04-28 20:22 | -12.41462 | -75.74279 | 32816 ft | 413 kts | 285° |
| 2026-04-28 20:23 | -12.40809 | -75.77144 | 32396 ft | 412 kts | 285° |
| 2026-04-28 20:23 | -12.40376 | -75.79036 | 32138 ft | 411 kts | 284° |
| 2026-04-28 20:23 | -12.39720 | -75.81887 | 31729 ft | 412 kts | 284° |
| 2026-04-28 20:23 | -12.39064 | -75.84747 | 31318 ft | 411 kts | 284° |
| 2026-04-28 20:24 | -12.38207 | -75.88509 | 30790 ft | 408 kts | 284° |
| 2026-04-28 20:24 | -12.37769 | -75.90422 | 30524 ft | 407 kts | 284° |
| 2026-04-28 20:24 | -12.37132 | -75.93206 | 30148 ft | 406 kts | 284° |
| 2026-04-28 20:24 | -12.36488 | -75.96008 | 29592 ft | 404 kts | 283° |
| 2026-04-28 20:25 | -12.35846 | -75.98798 | 29045 ft | 402 kts | 283° |
| 2026-04-28 20:25 | -12.35206 | -76.01573 | 28504 ft | 399 kts | 283° |
| 2026-04-28 20:25 | -12.34572 | -76.04332 | 27975 ft | 397 kts | 283° |
| 2026-04-28 20:25 | -12.33959 | -76.07076 | 27511 ft | 393 kts | 282° |
| 2026-04-28 20:26 | -12.33369 | -76.09804 | 27134 ft | 391 kts | 282° |
| 2026-04-28 20:26 | -12.32791 | -76.12516 | 26775 ft | 389 kts | 282° |
| 2026-04-28 20:26 | -12.32223 | -76.15217 | 26409 ft | 387 kts | 282° |
| 2026-04-28 20:26 | -12.31657 | -76.17901 | 26058 ft | 385 kts | 282° |
| 2026-04-28 20:27 | -12.31085 | -76.20571 | 25709 ft | 382 kts | 282° |
| 2026-04-28 20:27 | -12.30511 | -76.23223 | 25341 ft | 382 kts | 282° |
| 2026-04-28 20:27 | -12.29941 | -76.25846 | 25005 ft | 381 kts | 282° |
| 2026-04-28 20:27 | -12.29375 | -76.28480 | 24654 ft | 378 kts | 282° |
| 2026-04-28 20:28 | -12.28809 | -76.31119 | 24304 ft | 377 kts | 281° |
| 2026-04-28 20:28 | -12.28254 | -76.33699 | 23960 ft | 375 kts | 281° |
| 2026-04-28 20:28 | -12.27689 | -76.36314 | 23582 ft | 375 kts | 281° |
| 2026-04-28 20:28 | -12.27127 | -76.38909 | 23172 ft | 373 kts | 281° |
| 2026-04-28 20:29 | -12.26566 | -76.41496 | 22759 ft | 372 kts | 281° |
| 2026-04-28 20:29 | -12.26005 | -76.44074 | 22353 ft | 370 kts | 282° |
| 2026-04-28 20:29 | -12.25448 | -76.46638 | 21955 ft | 368 kts | 281° |
| 2026-04-28 20:29 | -12.24897 | -76.49188 | 21564 ft | 366 kts | 282° |
| 2026-04-28 20:30 | -12.24359 | -76.51690 | 21129 ft | 364 kts | 281° |
| 2026-04-28 20:30 | -12.23816 | -76.54213 | 20745 ft | 362 kts | 282° |
| 2026-04-28 20:30 | -12.23274 | -76.56727 | 20366 ft | 360 kts | 282° |
| 2026-04-28 20:30 | -12.22734 | -76.59219 | 19994 ft | 358 kts | 282° |
| 2026-04-28 20:31 | -12.22195 | -76.61695 | 19628 ft | 355 kts | 282° |
| 2026-04-28 20:31 | -12.21659 | -76.64152 | 19258 ft | 352 kts | 282° |
| 2026-04-28 20:31 | -12.21131 | -76.66584 | 18869 ft | 349 kts | 282° |
| 2026-04-28 20:31 | -12.20602 | -76.69004 | 18510 ft | 347 kts | 282° |
| 2026-04-28 20:32 | -12.20083 | -76.71373 | 18144 ft | 345 kts | 283° |
| 2026-04-28 20:32 | -12.19556 | -76.73765 | 17711 ft | 344 kts | 282° |
| 2026-04-28 20:32 | -12.19033 | -76.76147 | 17285 ft | 343 kts | 282° |
| 2026-04-28 20:32 | -12.18512 | -76.78526 | 16864 ft | 342 kts | 282° |
| 2026-04-28 20:33 | -12.17992 | -76.80899 | 16430 ft | 342 kts | 282° |
| 2026-04-28 20:33 | -12.17471 | -76.83275 | 16025 ft | 341 kts | 282° |
| 2026-04-28 20:33 | -12.16951 | -76.85644 | 15615 ft | 341 kts | 282° |
| 2026-04-28 20:33 | -12.16378 | -76.87960 | 15213 ft | 340 kts | 290° |
| 2026-04-28 20:34 | -12.15276 | -76.90102 | 14815 ft | 340 kts | 301° |
| 2026-04-28 20:34 | -12.14041 | -76.92163 | 14430 ft | 340 kts | 301° |
| 2026-04-28 20:34 | -12.12802 | -76.94213 | 14038 ft | 339 kts | 301° |
| 2026-04-28 20:34 | -12.11557 | -76.96262 | 13644 ft | 339 kts | 301° |
| 2026-04-28 20:35 | -12.10311 | -76.98317 | 13218 ft | 338 kts | 301° |
| 2026-04-28 20:35 | -12.09074 | -77.00365 | 12782 ft | 337 kts | 301° |
| 2026-04-28 20:35 | -12.07859 | -77.02379 | 12369 ft | 336 kts | 301° |
| 2026-04-28 20:35 | -12.06622 | -77.04428 | 11937 ft | 334 kts | 301° |
| 2026-04-28 20:36 | -12.05418 | -77.06419 | 11539 ft | 333 kts | 301° |
| 2026-04-28 20:36 | -12.04204 | -77.08426 | 11149 ft | 331 kts | 301° |
| 2026-04-28 20:36 | -12.02995 | -77.10421 | 10751 ft | 329 kts | 301° |
| 2026-04-28 20:36 | -12.01793 | -77.12406 | 10359 ft | 327 kts | 301° |
| 2026-04-28 20:37 | -12.00599 | -77.14379 | 9973 ft | 325 kts | 301° |
| 2026-04-28 20:37 | -11.99412 | -77.16336 | 9559 ft | 323 kts | 301° |
| 2026-04-28 20:37 | -11.98232 | -77.18287 | 9140 ft | 321 kts | 301° |
| 2026-04-28 20:37 | -11.97041 | -77.20258 | 8260 ft | 332 kts | 302° |
| 2026-04-28 20:38 | -11.95800 | -77.22313 | 7248 ft | 347 kts | 302° |
| 2026-04-28 20:38 | -11.94504 | -77.24453 | 6183 ft | 360 kts | 302° |
| 2026-04-28 20:38 | -11.93165 | -77.26586 | 4947 ft | 360 kts | 308° |
| 2026-04-28 20:38 | -11.91349 | -77.28305 | 3647 ft | 356 kts | 328° |
| 2026-04-28 20:39 | -11.89109 | -77.29142 | 3119 ft | 330 kts | 353° |
| 2026-04-28 20:39 | -11.86949 | -77.28977 | 3009 ft | 296 kts | 19° |
| 2026-04-28 20:39 | -11.85290 | -77.27979 | 3017 ft | 267 kts | 46° |
| 2026-04-28 20:39 | -11.84400 | -77.26461 | 3017 ft | 237 kts | 77° |
| 2026-04-28 20:40 | -11.84433 | -77.24877 | 3020 ft | 221 kts | 109° |
| 2026-04-28 20:40 | -11.85007 | -77.23451 | 3027 ft | 211 kts | 115° |
| 2026-04-28 20:40 | -11.85635 | -77.22122 | 2961 ft | 206 kts | 116° |
| 2026-04-28 20:40 | -11.86321 | -77.20851 | 2830 ft | 203 kts | 129° |
| 2026-04-28 20:41 | -11.87375 | -77.19932 | 2711 ft | 201 kts | 153° |
| 2026-04-28 20:41 | -11.88634 | -77.19308 | 2637 ft | 201 kts | 155° |
| 2026-04-28 20:41 | -11.89898 | -77.18687 | 2437 ft | 201 kts | 155° |
| 2026-04-28 20:41 | -11.91163 | -77.18064 | 2196 ft | 202 kts | 155° |
| 2026-04-28 20:42 | -11.92431 | -77.17439 | 1968 ft | 200 kts | 155° |
| 2026-04-28 20:42 | -11.93682 | -77.16822 | 1689 ft | 199 kts | 156° |
| 2026-04-28 20:42 | -11.94898 | -77.16222 | 1437 ft | 188 kts | 157° |
| 2026-04-28 20:42 | -11.96037 | -77.15660 | 1154 ft | 178 kts | 157° |
| 2026-04-28 20:43 | -11.97119 | -77.15126 | 923 ft | 167 kts | 157° |
| 2026-04-28 20:43 | -11.98142 | -77.14622 | 714 ft | 160 kts | 157° |
| 2026-04-28 20:43 | -11.99139 | -77.14131 | 514 ft | 159 kts | 157° |
| 2026-04-28 20:43 | -12.00136 | -77.13639 | 302 ft | 158 kts | 156° |
| 2026-04-28 20:44 | -12.01113 | -77.13151 | 97 ft | 155 kts | 157° |
| 2026-04-28 20:44 | -12.02009 | -77.12715 | 42 ft | 116 kts | 154° |
| 2026-04-28 20:44 | -12.02465 | -77.12490 | 48 ft | 34 kts | 154° |
| 2026-04-28 20:44 | -12.02659 | -77.12372 | 52 ft | 32 kts | 142° |
| 2026-04-28 20:45 | -12.02795 | -77.12199 | 60 ft | 30 kts | 129° |
| 2026-04-28 20:45 | -12.02942 | -77.12063 | 66 ft | 28 kts | 134° |
| 2026-04-28 20:45 | -12.03034 | -77.11946 | 76 ft | 6 kts | 91° |
| 2026-04-28 20:45 | -12.03033 | -77.11930 | 73 ft | 0 kts | 80° |